Time;durP1;ratioP1;P1;durP2;ratioP2;P2;SDS_P1;SDS_P2;PMS_P1;PMS_P2;Temp;Humidity;BMP_temperature;BMP_pressure;BME280_temperature;BME280_humidity;BME280_pressure;Samples;Min_cycle;Max_cycle;Signal;HPM_P1;HPM_P2
2022/09/30 00:02:25;;;;;;;10.48;7.13;;;9.90;99.90;;;;;;4968445;28;20107;-77
2022/09/30 00:04:50;;;;;;;7.88;6.57;;;9.90;99.90;;;;;;4973767;28;20125;-76
2022/09/30 00:07:16;;;;;;;7.53;5.93;;;9.90;99.90;;;;;;4969433;28;20039;-77
2022/09/30 00:09:42;;;;;;;9.25;6.63;;;9.90;99.90;;;;;;4970651;28;20065;-77
2022/09/30 00:12:09;;;;;;;7.82;6.22;;;9.90;99.90;;;;;;4970564;28;20031;-79
2022/09/30 00:14:35;;;;;;;8.85;6.38;;;9.90;99.90;;;;;;4971754;28;20494;-77
2022/09/30 00:17:01;;;;;;;10.98;7.15;;;9.90;99.90;;;;;;4983763;28;20038;-78
2022/09/30 00:19:26;;;;;;;11.45;7.03;;;9.90;99.90;;;;;;4984194;28;20085;-78
2022/09/30 00:21:52;;;;;;;10.65;7.57;;;9.90;99.90;;;;;;4970923;28;20560;-77
2022/09/30 00:24:18;;;;;;;8.48;6.97;;;9.90;99.90;;;;;;4950923;28;20033;-76
2022/09/30 00:26:44;;;;;;;8.88;7.45;;;9.90;99.90;;;;;;4972703;28;20031;-78
2022/09/30 00:29:10;;;;;;;10.30;7.72;;;9.90;99.90;;;;;;4967788;28;20027;-77
2022/09/30 00:31:36;;;;;;;10.50;8.18;;;9.90;99.90;;;;;;4949958;28;20088;-79
2022/09/30 00:34:05;;;;;;;10.05;7.88;;;9.90;99.90;;;;;;4971326;28;20084;-77
2022/09/30 00:36:35;;;;;;;10.35;8.00;;;9.90;99.90;;;;;;4950487;28;20039;-77
2022/09/30 00:39:02;;;;;;;9.63;7.72;;;9.90;99.90;;;;;;4990379;28;20509;-77
2022/09/30 00:41:28;;;;;;;10.85;8.00;;;9.90;99.90;;;;;;4962661;28;20023;-77
2022/09/30 00:43:53;;;;;;;9.52;8.25;;;9.90;99.90;;;;;;4966127;28;20029;-78
2022/09/30 00:46:35;;;;;;;11.68;8.88;;;9.90;99.90;;;;;;4963980;28;20027;-76
2022/09/30 00:49:06;;;;;;;9.85;8.23;;;9.90;99.90;;;;;;4976186;28;20031;-77
2022/09/30 00:51:35;;;;;;;;;;;9.90;99.90;;;;;;4977850;28;20034;-79
2022/09/30 00:54:13;;;;;;;9.63;8.15;;;9.90;99.90;;;;;;4968976;28;19942;-75
2022/09/30 00:56:45;;;;;;;9.90;8.52;;;9.90;99.90;;;;;;4981570;28;20030;-79
2022/09/30 00:59:28;;;;;;;10.63;8.55;;;9.80;99.90;;;;;;4980217;28;20033;-76
2022/09/30 01:01:54;;;;;;;10.27;8.45;;;9.80;99.90;;;;;;4964172;28;20182;-77
2022/09/30 01:04:24;;;;;;;10.98;9.43;;;9.80;99.90;;;;;;4965299;28;20447;-77
2022/09/30 01:06:50;;;;;;;10.93;8.60;;;9.70;99.90;;;;;;4965757;28;20034;-75
2022/09/30 01:09:17;;;;;;;13.35;9.15;;;9.70;99.90;;;;;;4964715;28;20413;-76
2022/09/30 01:11:42;;;;;;;12.93;9.30;;;9.70;99.90;;;;;;4986691;28;20480;-77
2022/09/30 01:14:14;;;;;;;11.70;9.43;;;9.70;99.90;;;;;;4971937;28;20201;-77
2022/09/30 01:17:05;;;;;;;12.48;9.23;;;9.70;99.90;;;;;;4966570;28;20377;-76
2022/09/30 01:19:57;;;;;;;12.55;9.18;;;9.70;99.90;;;;;;4970169;28;20042;-75
2022/09/30 01:22:36;;;;;;;12.90;9.73;;;9.60;99.90;;;;;;4968580;28;20110;-76
2022/09/30 01:25:29;;;;;;;11.70;9.82;;;9.60;99.90;;;;;;4966613;28;20023;-77
2022/09/30 01:28:32;;;;;;;12.05;9.60;;;9.60;99.90;;;;;;4968642;28;20026;-77
2022/09/30 01:31:17;;;;;;;11.40;9.38;;;9.60;99.90;;;;;;4995019;28;20042;-77
2022/09/30 01:34:15;;;;;;;13.65;9.52;;;9.60;99.90;;;;;;4991486;28;20029;-75
2022/09/30 01:37:39;;;;;;;13.45;9.80;;;9.50;99.90;;;;;;4985752;28;20027;-77
2022/09/30 01:40:29;;;;;;;12.27;9.77;;;9.60;99.90;;;;;;4953527;28;20033;-79
2022/09/30 01:43:48;;;;;;;12.90;10.05;;;9.50;99.90;;;;;;4979014;28;20023;-76
2022/09/30 01:46:21;;;;;;;13.20;10.35;;;9.50;99.90;;;;;;4881824;29;20064;-76
2022/09/30 01:49:08;;;;;;;15.93;11.10;;;9.50;99.90;;;;;;4880999;29;20531;-75
2022/09/30 01:51:43;;;;;;;15.20;11.13;;;9.50;99.90;;;;;;4936476;28;20426;-78
2022/09/30 01:54:51;;;;;;;14.32;10.85;;;9.50;99.90;;;;;;4969168;28;20027;-77
2022/09/30 01:57:22;;;;;;;12.35;10.15;;;9.40;99.90;;;;;;4984270;28;20026;-77
2022/09/30 02:00:08;;;;;;;13.95;11.43;;;9.40;99.90;;;;;;4969549;28;20034;-78
2022/09/30 02:02:47;;;;;;;14.90;10.43;;;9.40;99.90;;;;;;4969305;28;20038;-77
2022/09/30 02:05:27;;;;;;;14.13;11.40;;;9.40;99.90;;;;;;4968916;28;20098;-77
2022/09/30 02:08:00;;;;;;;13.35;10.65;;;9.40;99.90;;;;;;4986819;28;20110;-77
2022/09/30 02:10:33;;;;;;;14.40;11.30;;;9.40;99.90;;;;;;4966282;28;20105;-77
2022/09/30 02:13:48;;;;;;;13.98;11.27;;;9.40;99.90;;;;;;4985720;28;20027;-76
2022/09/30 02:16:21;;;;;;;15.73;12.27;;;9.40;99.90;;;;;;4966001;28;20054;-78
2022/09/30 02:18:52;;;;;;;17.05;12.30;;;9.30;99.90;;;;;;4972938;28;20030;-75
2022/09/30 02:21:26;;;;;;;14.20;11.00;;;9.30;99.90;;;;;;4969753;28;20038;-76
2022/09/30 02:23:59;;;;;;;15.60;11.57;;;9.40;99.90;;;;;;4969499;28;20117;-77
2022/09/30 02:26:28;;;;;;;17.83;12.90;;;9.40;99.90;;;;;;4972275;28;20517;-78
2022/09/30 02:29:09;;;;;;;16.88;12.13;;;9.40;99.90;;;;;;4978304;28;20463;-77
2022/09/30 02:31:40;;;;;;;15.25;12.05;;;9.40;99.90;;;;;;4973245;28;20031;-77
2022/09/30 02:34:09;;;;;;;15.02;11.43;;;9.40;99.90;;;;;;4972763;28;20046;-76
2022/09/30 02:37:02;;;;;;;13.48;11.55;;;9.50;99.90;;;;;;4975154;28;20029;-77
2022/09/30 02:39:37;;;;;;;14.07;11.45;;;9.50;99.90;;;;;;4971776;28;20110;-77
2022/09/30 02:42:18;;;;;;;15.68;11.57;;;9.50;99.90;;;;;;4971691;28;20031;-77
2022/09/30 02:44:43;;;;;;;14.93;11.27;;;9.60;99.90;;;;;;4970143;28;20023;-76
2022/09/30 02:47:47;;;;;;;13.50;11.27;;;9.50;99.90;;;;;;4973529;28;20030;-76
2022/09/30 02:50:34;;;;;;;15.55;11.88;;;9.60;99.90;;;;;;4959496;28;20437;-76
2022/09/30 02:53:17;;;;;;;16.58;12.02;;;9.60;99.90;;;;;;4968790;28;20099;-76
2022/09/30 02:56:06;;;;;;;16.05;11.52;;;9.60;99.90;;;;;;4978770;28;20019;-76
2022/09/30 02:58:38;;;;;;;14.48;11.52;;;9.60;99.90;;;;;;4976466;28;20023;-78
2022/09/30 03:01:08;;;;;;;14.52;10.82;;;9.60;99.90;;;;;;4953745;28;20030;-78
2022/09/30 03:03:50;;;;;;;13.95;11.40;;;9.60;99.90;;;;;;4971390;28;20031;-77
2022/09/30 03:06:16;;;;;;;13.07;10.82;;;9.60;99.90;;;;;;4983196;28;20061;-77
2022/09/30 03:08:43;;;;;;;14.88;11.95;;;9.70;99.90;;;;;;4967627;28;20055;-76
2022/09/30 03:11:24;;;;;;;13.63;11.02;;;9.70;99.90;;;;;;4963245;28;20037;-76
2022/09/30 03:13:53;;;;;;;;;;;9.70;99.90;;;;;;4967994;28;20102;-77
2022/09/30 03:16:42;;;;;;;14.50;10.90;;;9.70;99.90;;;;;;4962515;28;19976;-75
2022/09/30 03:19:30;;;;;;;15.90;11.65;;;9.70;99.90;;;;;;4981644;28;20035;-77
2022/09/30 03:22:35;;;;;;;19.45;13.30;;;9.60;99.90;;;;;;4974533;28;20102;-77
2022/09/30 03:25:22;;;;;;;14.77;11.60;;;9.60;99.90;;;;;;4959582;28;20042;-77
2022/09/30 03:28:03;;;;;;;15.27;11.48;;;9.60;99.90;;;;;;4968498;28;20034;-77
2022/09/30 03:30:32;;;;;;;14.25;12.15;;;9.60;99.90;;;;;;4970675;28;20375;-78
2022/09/30 03:33:39;;;;;;;17.05;12.45;;;9.60;99.90;;;;;;4970344;28;20035;-76
2022/09/30 03:36:08;;;;;;;16.10;11.13;;;9.60;99.90;;;;;;4982574;28;20054;-77
2022/09/30 03:38:36;;;;;;;17.70;12.80;;;9.50;99.90;;;;;;4954786;28;20034;-77
2022/09/30 03:41:21;;;;;;;19.13;12.88;;;9.50;99.90;;;;;;4970033;28;20035;-77
2022/09/30 03:44:03;;;;;;;16.60;12.27;;;9.50;99.90;;;;;;4984432;28;20074;-76
2022/09/30 03:46:40;;;;;;;18.13;12.90;;;9.50;99.90;;;;;;4965857;28;20046;-78
2022/09/30 03:49:10;;;;;;;17.00;12.10;;;9.50;99.90;;;;;;4970076;28;20066;-77
2022/09/30 03:51:38;;;;;;;15.65;11.63;;;9.50;99.90;;;;;;4965411;28;20079;-77
2022/09/30 03:54:10;;;;;;;16.02;11.93;;;9.50;99.90;;;;;;4968460;28;20089;-77
2022/09/30 03:56:40;;;;;;;15.35;11.95;;;9.50;99.90;;;;;;4964661;28;20602;-77
2022/09/30 03:59:09;;;;;;;16.90;12.93;;;9.50;99.90;;;;;;4966746;28;20423;-76
2022/09/30 04:01:35;;;;;;;17.85;12.23;;;9.50;99.90;;;;;;4961147;28;20030;-77
2022/09/30 04:04:01;;;;;;;17.42;11.77;;;9.50;99.90;;;;;;4964940;28;20030;-77
2022/09/30 04:06:26;;;;;;;15.63;11.73;;;9.50;99.90;;;;;;4966881;28;20038;-77
2022/09/30 04:08:52;;;;;;;17.85;13.00;;;9.50;99.90;;;;;;4969566;28;20051;-77
2022/09/30 04:11:18;;;;;;;17.80;13.10;;;9.50;99.90;;;;;;4970785;28;20058;-76
2022/09/30 04:13:44;;;;;;;15.73;11.75;;;9.50;99.90;;;;;;4963523;28;20027;-77
2022/09/30 04:16:09;;;;;;;15.68;11.95;;;9.50;99.90;;;;;;4974379;28;20030;-78
2022/09/30 04:18:37;;;;;;;16.13;12.30;;;9.50;99.90;;;;;;4971574;28;20418;-77
2022/09/30 04:21:11;;;;;;;15.07;12.45;;;9.50;99.90;;;;;;4971323;28;20386;-78
2022/09/30 04:23:38;;;;;;;19.15;13.40;;;9.50;99.90;;;;;;4974218;28;20038;-78
2022/09/30 04:26:06;;;;;;;17.27;13.15;;;9.50;99.90;;;;;;4986169;28;20115;-77
2022/09/30 04:28:33;;;;;;;18.77;13.38;;;9.50;99.90;;;;;;4973822;28;20027;-78
2022/09/30 04:31:03;;;;;;;18.38;13.45;;;9.50;99.90;;;;;;4970625;28;20196;-75
2022/09/30 04:33:29;;;;;;;19.80;13.50;;;9.50;99.90;;;;;;4955394;28;20117;-76
2022/09/30 04:35:56;;;;;;;17.77;13.00;;;9.50;99.90;;;;;;4969543;28;20065;-74
2022/09/30 04:38:25;;;;;;;18.90;13.30;;;9.50;99.90;;;;;;4971561;28;20062;-78
2022/09/30 04:40:53;;;;;;;16.17;12.23;;;9.50;99.90;;;;;;4965304;28;20039;-78
2022/09/30 04:43:21;;;;;;;17.98;12.63;;;9.50;99.90;;;;;;4971403;28;20351;-77
2022/09/30 04:45:47;;;;;;;21.15;13.13;;;9.50;99.90;;;;;;4971231;28;20106;-77
2022/09/30 04:48:13;;;;;;;17.98;13.10;;;9.50;99.90;;;;;;4968731;28;20027;-77
2022/09/30 04:50:40;;;;;;;19.10;13.82;;;9.50;99.90;;;;;;4972105;28;20035;-75
2022/09/30 04:53:07;;;;;;;17.83;12.75;;;9.50;99.90;;;;;;4986239;28;20027;-75
2022/09/30 04:55:33;;;;;;;18.73;13.93;;;9.50;99.90;;;;;;4982997;28;20655;-77
2022/09/30 04:57:59;;;;;;;17.23;13.27;;;9.50;99.90;;;;;;4974674;28;20125;-78
2022/09/30 05:00:24;;;;;;;17.45;13.70;;;9.50;99.90;;;;;;4970712;28;20117;-77
2022/09/30 05:02:51;;;;;;;17.25;13.20;;;9.50;99.90;;;;;;4970875;28;20031;-77
2022/09/30 05:05:17;;;;;;;17.63;13.57;;;9.50;99.90;;;;;;4969918;28;20470;-77
2022/09/30 05:07:43;;;;;;;19.05;13.52;;;9.50;99.90;;;;;;4947282;28;20114;-77
2022/09/30 05:10:10;;;;;;;17.85;13.75;;;9.50;99.90;;;;;;4964495;28;20551;-77
2022/09/30 05:12:37;;;;;;;17.13;13.13;;;9.50;99.90;;;;;;4968255;28;20042;-78
2022/09/30 05:15:04;;;;;;;20.38;13.50;;;9.50;99.90;;;;;;4968434;28;20065;-77
2022/09/30 05:17:30;;;;;;;16.98;13.50;;;9.50;99.90;;;;;;4976452;28;20035;-77
2022/09/30 05:19:57;;;;;;;19.70;14.02;;;9.40;99.90;;;;;;4971112;28;20027;-77
2022/09/30 05:22:23;;;;;;;18.90;13.30;;;9.40;99.90;;;;;;5012229;22;20111;-73
2022/09/30 05:24:55;;;;;;;19.08;14.20;;;9.40;99.90;;;;;;4994079;28;20517;-77
2022/09/30 05:27:23;;;;;;;18.42;14.15;;;9.40;99.90;;;;;;5006169;28;20030;-73
2022/09/30 05:29:49;;;;;;;17.88;13.40;;;9.40;99.90;;;;;;4999131;28;20101;-76
2022/09/30 05:32:15;;;;;;;17.85;14.20;;;9.40;99.90;;;;;;5002994;28;20116;-73
2022/09/30 05:34:41;;;;;;;17.15;13.48;;;9.30;99.90;;;;;;5001251;28;20087;-73
2022/09/30 05:37:08;;;;;;;18.40;14.48;;;9.30;99.90;;;;;;5004125;28;20452;-74
2022/09/30 05:39:34;;;;;;;19.45;14.40;;;9.30;99.90;;;;;;4999269;28;20040;-78
2022/09/30 05:42:00;;;;;;;20.13;15.13;;;9.30;99.90;;;;;;5000668;28;20148;-74
2022/09/30 05:44:26;;;;;;;20.73;15.68;;;9.30;99.90;;;;;;5006484;28;20116;-73
2022/09/30 05:46:51;;;;;;;19.52;13.02;;;9.30;99.90;;;;;;5007011;28;20374;-73
2022/09/30 05:49:17;;;;;;;20.27;13.95;;;9.50;99.90;;;;;;5001964;28;20466;-74
2022/09/30 05:51:43;;;;;;;21.00;14.43;;;9.40;99.90;;;;;;4999277;28;20026;-73
2022/09/30 05:54:10;;;;;;;19.98;15.18;;;9.40;99.90;;;;;;4987832;28;20532;-74
2022/09/30 05:56:37;;;;;;;20.15;14.65;;;9.40;99.90;;;;;;5003925;28;20030;-73
2022/09/30 05:59:04;;;;;;;18.77;14.52;;;9.40;99.90;;;;;;4986532;28;20025;-74
2022/09/30 06:01:29;;;;;;;17.52;14.02;;;9.40;99.90;;;;;;5000205;28;20080;-73
2022/09/30 06:03:55;;;;;;;17.98;14.25;;;9.40;99.90;;;;;;5002604;28;20034;-74
2022/09/30 06:06:21;;;;;;;21.48;14.50;;;9.30;99.90;;;;;;4995816;28;20042;-73
2022/09/30 06:08:47;;;;;;;22.23;15.13;;;9.40;99.90;;;;;;5005289;28;20030;-73
2022/09/30 06:11:16;;;;;;;19.27;14.00;;;9.40;99.90;;;;;;4996641;28;20109;-73
2022/09/30 06:13:42;;;;;;;18.55;14.63;;;9.40;99.90;;;;;;5001018;28;20022;-73
2022/09/30 06:16:10;;;;;;;15.90;13.80;;;9.40;99.90;;;;;;5005615;28;20026;-73
2022/09/30 06:18:40;;;;;;;17.98;13.30;;;9.40;99.90;;;;;;5009262;28;20116;-72
2022/09/30 06:21:06;;;;;;;18.83;14.57;;;9.40;99.90;;;;;;5004141;28;20042;-73
2022/09/30 06:23:35;;;;;;;18.90;13.85;;;9.50;99.90;;;;;;5007038;28;20080;-73
2022/09/30 06:26:02;;;;;;;18.45;13.95;;;9.50;99.90;;;;;;5005157;28;20038;-73
2022/09/30 06:28:28;;;;;;;18.65;13.85;;;9.50;99.90;;;;;;5001813;28;20081;-72
2022/09/30 06:30:54;;;;;;;19.88;14.68;;;9.50;99.90;;;;;;5006356;28;20057;-72
2022/09/30 06:33:21;;;;;;;17.48;12.63;;;9.60;99.90;;;;;;5005512;28;20046;-75
2022/09/30 06:35:47;;;;;;;17.85;13.88;;;9.60;99.90;;;;;;5008467;28;20545;-75
2022/09/30 06:38:17;;;;;;;17.33;13.43;;;9.70;99.90;;;;;;5009518;28;21362;-75
2022/09/30 06:40:43;;;;;;;18.38;13.18;;;9.70;99.90;;;;;;5010668;28;20124;-76
2022/09/30 06:43:10;;;;;;;16.70;13.05;;;9.70;99.90;;;;;;5006286;28;20559;-74
2022/09/30 06:45:37;;;;;;;17.40;12.85;;;9.70;99.90;;;;;;5010893;28;20033;-74
2022/09/30 06:48:04;;;;;;;19.98;13.18;;;9.70;99.90;;;;;;5008205;28;20054;-71
2022/09/30 06:50:31;;;;;;;17.20;12.02;;;9.80;99.90;;;;;;5021799;28;20033;-72
2022/09/30 06:53:04;;;;;;;16.92;12.63;;;9.80;99.90;;;;;;5012780;28;20038;-71
2022/09/30 06:55:31;;;;;;;14.90;12.45;;;9.80;99.90;;;;;;5011562;28;20054;-72
2022/09/30 06:57:57;;;;;;;17.58;14.07;;;9.80;99.90;;;;;;5013835;28;20026;-74
2022/09/30 07:00:27;;;;;;;16.90;12.75;;;9.80;99.90;;;;;;4992501;28;20076;-73
2022/09/30 07:02:57;;;;;;;17.15;13.57;;;9.90;99.90;;;;;;5004535;28;20037;-73
2022/09/30 07:05:26;;;;;;;15.50;11.73;;;9.90;99.90;;;;;;5012850;28;20072;-72
2022/09/30 07:07:53;;;;;;;14.48;11.82;;;9.90;99.90;;;;;;5016539;28;21019;-73
2022/09/30 07:10:19;;;;;;;16.58;11.85;;;10.00;99.90;;;;;;5014749;28;20026;-73
2022/09/30 07:12:50;;;;;;;17.67;12.23;;;10.00;99.90;;;;;;5010122;28;20385;-73
2022/09/30 07:15:16;;;;;;;17.25;13.18;;;10.00;99.90;;;;;;5009356;28;20022;-75
2022/09/30 07:17:42;;;;;;;17.15;12.57;;;10.00;99.90;;;;;;5008362;28;20022;-71
2022/09/30 07:20:08;;;;;;;14.85;10.82;;;10.00;99.90;;;;;;5008863;28;20037;-74
2022/09/30 07:22:34;;;;;;;17.92;11.20;;;10.10;99.90;;;;;;5004978;28;20037;-72
2022/09/30 07:25:04;;;;;;;14.32;10.85;;;10.10;99.90;;;;;;5002681;28;20141;-71
2022/09/30 07:27:32;;;;;;;16.40;11.95;;;10.20;99.90;;;;;;5009084;28;20041;-71
2022/09/30 07:30:01;;;;;;;13.73;10.88;;;10.20;99.90;;;;;;5007323;28;20038;-72
2022/09/30 07:32:27;;;;;;;14.15;11.20;;;10.20;99.90;;;;;;5008653;28;20521;-73
2022/09/30 07:34:52;;;;;;;15.75;11.80;;;10.20;99.90;;;;;;5007523;28;20030;-73
2022/09/30 07:37:18;;;;;;;16.23;11.27;;;10.30;99.90;;;;;;5011627;28;20102;-73
2022/09/30 07:39:46;;;;;;;15.13;11.00;;;10.30;99.90;;;;;;5005904;28;20076;-72
2022/09/30 07:42:13;;;;;;;13.93;10.88;;;10.40;99.90;;;;;;5000701;28;20100;-73
2022/09/30 07:44:43;;;;;;;15.18;11.18;;;10.40;99.90;;;;;;5005215;28;20038;-73
2022/09/30 07:47:13;;;;;;;15.93;11.50;;;10.40;99.90;;;;;;5005303;28;20033;-73
2022/09/30 07:49:40;;;;;;;12.52;10.93;;;10.50;99.90;;;;;;4990251;28;20034;-74
2022/09/30 07:52:08;;;;;;;13.15;10.40;;;10.50;99.90;;;;;;5004271;28;20080;-72
2022/09/30 07:54:34;;;;;;;17.42;11.13;;;10.50;99.90;;;;;;5006614;28;20076;-72
2022/09/30 07:57:02;;;;;;;13.50;10.18;;;10.60;99.90;;;;;;5006729;28;20026;-74
2022/09/30 07:59:30;;;;;;;14.57;10.60;;;10.60;99.90;;;;;;5007844;28;20036;-73
2022/09/30 08:01:56;;;;;;;12.05;9.85;;;10.60;99.90;;;;;;5004699;28;20052;-73
2022/09/30 08:04:24;;;;;;;11.73;8.65;;;10.60;99.90;;;;;;5000601;28;20040;-74
2022/09/30 08:06:56;;;;;;;9.70;8.23;;;10.70;99.90;;;;;;5003569;28;20045;-73
2022/09/30 08:09:24;;;;;;;13.05;9.90;;;10.70;99.90;;;;;;5007323;28;20061;-72
2022/09/30 08:11:50;;;;;;;13.75;10.40;;;10.80;99.90;;;;;;5005494;28;20032;-76
2022/09/30 08:14:19;;;;;;;12.52;9.88;;;10.80;99.90;;;;;;5008841;28;20025;-73
2022/09/30 08:16:45;;;;;;;13.52;9.15;;;10.80;99.90;;;;;;5007921;28;20022;-73
2022/09/30 08:19:19;;;;;;;13.82;10.70;;;10.80;99.90;;;;;;5008254;28;20026;-75
2022/09/30 08:21:45;;;;;;;12.40;9.43;;;10.90;99.90;;;;;;5006281;28;20030;-72
2022/09/30 08:24:11;;;;;;;11.45;8.65;;;11.00;99.90;;;;;;5005573;28;20026;-75
2022/09/30 08:26:37;;;;;;;11.00;8.65;;;11.00;99.90;;;;;;5008253;28;20141;-72
2022/09/30 08:29:04;;;;;;;12.07;9.35;;;11.00;99.90;;;;;;5009299;28;20022;-72
2022/09/30 08:31:32;;;;;;;12.60;8.00;;;11.10;99.90;;;;;;5001859;28;20040;-73
2022/09/30 08:33:58;;;;;;;13.90;8.85;;;11.10;99.90;;;;;;5004247;28;20045;-73
2022/09/30 08:36:26;;;;;;;12.98;9.10;;;11.20;99.90;;;;;;5005512;28;20097;-72
2022/09/30 08:38:52;;;;;;;12.70;8.55;;;11.20;99.90;;;;;;5006978;28;20030;-73
2022/09/30 08:41:30;;;;;;;9.95;8.07;;;11.30;99.90;;;;;;5005083;28;20030;-73
2022/09/30 08:44:21;;;;;;;13.57;8.48;;;11.30;99.90;;;;;;4996052;28;20521;-72
2022/09/30 08:46:48;;;;;;;9.48;7.28;;;11.30;99.90;;;;;;4998179;28;20533;-74
2022/09/30 08:49:35;;;;;;;10.52;7.82;;;11.30;99.90;;;;;;4998604;28;20035;-72
2022/09/30 08:52:04;;;;;;;10.98;7.63;;;11.30;99.90;;;;;;5006932;28;20131;-72
2022/09/30 08:54:33;;;;;;;9.18;7.45;;;11.50;99.90;;;;;;5007127;28;20030;-72
2022/09/30 08:57:01;;;;;;;9.88;7.30;;;11.50;99.90;;;;;;5006106;28;20034;-73
2022/09/30 08:59:39;;;;;;;9.38;7.03;;;11.50;99.90;;;;;;5009062;28;20042;-72
2022/09/30 09:02:26;;;;;;;9.10;7.00;;;11.50;99.90;;;;;;5005064;28;20028;-73
2022/09/30 09:04:56;;;;;;;9.18;6.40;;;11.60;99.90;;;;;;5011081;28;20104;-72
2022/09/30 09:07:40;;;;;;;7.55;5.30;;;11.60;99.90;;;;;;5007395;28;20163;-72
2022/09/30 09:10:23;;;;;;;14.48;7.60;;;11.70;99.90;;;;;;5006637;28;20037;-73
2022/09/30 09:13:09;;;;;;;8.45;6.20;;;11.70;99.90;;;;;;5008762;28;20068;-73
2022/09/30 09:15:54;;;;;;;8.32;5.88;;;11.90;99.90;;;;;;5009054;28;20946;-73
2022/09/30 09:18:28;;;;;;;7.47;5.70;;;12.10;99.90;;;;;;4997028;28;20486;-73
2022/09/30 09:20:58;;;;;;;9.75;6.30;;;12.40;99.90;;;;;;5001399;28;20034;-73
2022/09/30 09:23:27;;;;;;;7.85;5.53;;;12.60;99.90;;;;;;5005751;28;20030;-72
2022/09/30 09:25:54;;;;;;;7.82;5.55;;;12.80;99.90;;;;;;5007507;28;20104;-72
2022/09/30 09:28:47;;;;;;;7.10;5.50;;;12.90;99.90;;;;;;5007603;28;20045;-72
2022/09/30 09:31:17;;;;;;;8.43;4.90;;;13.10;99.90;;;;;;5021261;28;20029;-72
2022/09/30 09:33:43;;;;;;;6.43;5.20;;;13.10;99.90;;;;;;5002235;28;20030;-72
2022/09/30 09:36:14;;;;;;;6.22;4.80;;;13.20;99.90;;;;;;5001796;28;20593;-72
2022/09/30 09:38:42;;;;;;;7.68;4.40;;;13.30;99.90;;;;;;4999866;28;20482;-73
2022/09/30 09:41:42;;;;;;;7.43;4.72;;;13.30;99.90;;;;;;4999320;28;20033;-73
2022/09/30 09:44:27;;;;;;;5.03;3.90;;;13.40;99.90;;;;;;5003283;28;20078;-73
2022/09/30 09:47:03;;;;;;;7.75;4.78;;;13.40;99.90;;;;;;5003837;28;20058;-73
2022/09/30 09:49:32;;;;;;;6.45;4.72;;;13.50;99.90;;;;;;5008712;28;20176;-75
2022/09/30 09:52:12;;;;;;;7.75;4.40;;;13.60;99.90;;;;;;5009581;28;20030;-74
2022/09/30 09:54:41;;;;;;;7.30;4.05;;;13.90;99.90;;;;;;5009408;28;20105;-73
2022/09/30 09:57:16;;;;;;;7.75;4.22;;;14.00;99.90;;;;;;5009684;28;20084;-73
2022/09/30 10:03:17;;;;;;;5.97;3.30;;;14.00;99.90;;;;;;5000531;28;20165;-73
2022/09/30 10:05:46;;;;;;;6.25;3.85;;;14.00;99.90;;;;;;5005706;28;20181;-73
2022/09/30 10:08:22;;;;;;;6.20;4.50;;;14.00;99.90;;;;;;5006647;28;20053;-72
2022/09/30 10:10:53;;;;;;;4.97;3.63;;;14.00;99.90;;;;;;5008421;28;20458;-74
2022/09/30 10:13:28;;;;;;;4.13;3.53;;;14.20;99.90;;;;;;5005823;28;20057;-74
2022/09/30 10:16:00;;;;;;;4.72;4.10;;;14.50;99.90;;;;;;5006696;28;20040;-73
2022/09/30 10:18:36;;;;;;;6.13;3.90;;;14.50;99.90;;;;;;5005021;28;20022;-73
2022/09/30 10:21:19;;;;;;;6.63;4.20;;;14.50;99.90;;;;;;5008517;28;20065;-73
2022/09/30 10:23:45;;;;;;;5.03;3.53;;;14.40;99.90;;;;;;5010027;28;20029;-74
2022/09/30 10:26:13;;;;;;;4.10;3.05;;;14.60;99.90;;;;;;5011439;28;20382;-73
2022/09/30 10:28:45;;;;;;;7.05;3.70;;;14.70;99.90;;;;;;5010102;28;20030;-73
2022/09/30 10:31:25;;;;;;;7.43;4.30;;;14.70;99.90;;;;;;5022494;28;20119;-73
2022/09/30 10:34:32;;;;;;;4.50;3.50;;;14.80;99.90;;;;;;5010999;28;20528;-73
2022/09/30 10:37:05;;;;;;;4.88;3.50;;;14.90;99.90;;;;;;5005460;28;20046;-72
2022/09/30 10:39:36;;;;;;;3.67;2.83;;;14.90;99.90;;;;;;5010038;28;20034;-72
2022/09/30 10:42:16;;;;;;;7.03;4.90;;;14.80;99.90;;;;;;4992384;28;20053;-73
2022/09/30 10:44:57;;;;;;;6.55;3.72;;;15.00;99.90;;;;;;5001391;28;21039;-76
2022/09/30 10:47:25;;;;;;;5.10;3.20;;;15.30;99.90;;;;;;5009790;28;20045;-75
2022/09/30 10:50:04;;;;;;;4.57;3.15;;;15.40;99.90;;;;;;5022879;28;20435;-76
2022/09/30 10:52:43;;;;;;;3.83;2.72;;;15.70;99.90;;;;;;5005780;28;20030;-76
2022/09/30 10:55:18;;;;;;;9.10;2.70;;;16.70;99.90;;;;;;5010173;28;20034;-75
2022/09/30 10:57:46;;;;;;;3.63;2.20;;;17.00;99.90;;;;;;5008428;28;20030;-75
2022/09/30 11:00:17;;;;;;;6.60;2.20;;;17.10;99.90;;;;;;4994211;28;20030;-78
2022/09/30 11:02:52;;;;;;;3.88;2.15;;;16.80;99.90;;;;;;5006141;28;20798;-76
2022/09/30 11:05:23;;;;;;;2.92;1.60;;;17.00;99.90;;;;;;4986597;28;20040;-77
2022/09/30 11:07:58;;;;;;;2.45;1.60;;;17.10;99.90;;;;;;5008901;28;20026;-76
2022/09/30 11:10:46;;;;;;;2.92;1.55;;;17.10;99.90;;;;;;5007592;28;20037;-76
2022/09/30 11:13:30;;;;;;;3.33;1.50;;;16.90;99.90;;;;;;4982774;28;20045;-78
2022/09/30 11:16:08;;;;;;;2.40;1.52;;;16.40;99.90;;;;;;5009833;28;20026;-76
2022/09/30 11:18:53;;;;;;;3.15;1.85;;;16.40;99.90;;;;;;5008737;28;20524;-76
2022/09/30 11:21:34;;;;;;;2.42;1.50;;;16.10;99.90;;;;;;4982381;28;20402;-77
2022/09/30 11:24:10;;;;;;;2.45;1.80;;;15.70;99.90;;;;;;5009560;28;20493;-74
2022/09/30 11:26:41;;;;;;;4.15;2.08;;;15.30;99.90;;;;;;5012187;28;20052;-75
2022/09/30 11:29:14;;;;;;;4.05;2.08;;;15.20;99.90;;;;;;5014467;28;20525;-76
2022/09/30 11:31:43;;;;;;;2.70;1.80;;;15.20;99.90;;;;;;5009461;28;20048;-76
2022/09/30 11:34:25;;;;;;;3.03;1.38;;;15.20;99.90;;;;;;5009806;28;20026;-74
2022/09/30 11:37:04;;;;;;;3.10;1.70;;;15.40;99.90;;;;;;5008502;28;20035;-75
2022/09/30 11:40:11;;;;;;;3.30;1.73;;;15.30;99.90;;;;;;5007726;28;20061;-75
2022/09/30 11:42:59;;;;;;;3.28;1.38;;;15.20;99.90;;;;;;5004142;28;20080;-76
2022/09/30 11:45:42;;;;;;;3.42;1.63;;;15.10;99.90;;;;;;4983985;28;20073;-76
2022/09/30 11:48:27;;;;;;;2.78;1.40;;;15.10;99.90;;;;;;5006342;28;20109;-75
2022/09/30 11:50:55;;;;;;;2.95;1.40;;;15.00;99.90;;;;;;5003120;28;20030;-74
2022/09/30 11:53:57;;;;;;;3.88;2.05;;;14.90;99.90;;;;;;5005355;28;20037;-74
2022/09/30 11:56:26;;;;;;;3.45;2.03;;;14.80;99.90;;;;;;5002047;28;20030;-74
2022/09/30 11:58:57;;;;;;;4.28;1.60;;;14.70;99.90;;;;;;5005153;28;20026;-75
2022/09/30 12:01:42;;;;;;;1.83;1.45;;;15.00;99.90;;;;;;5000513;28;20034;-75
2022/09/30 12:04:14;;;;;;;3.65;1.50;;;15.10;99.90;;;;;;4997834;28;20030;-75
2022/09/30 12:07:00;;;;;;;1.85;1.52;;;15.10;99.90;;;;;;5010430;28;20034;-75
2022/09/30 12:09:36;;;;;;;3.45;1.73;;;15.10;99.90;;;;;;5017187;28;20642;-73
2022/09/30 12:12:10;;;;;;;9.38;2.00;;;14.90;99.90;;;;;;4999251;28;20041;-74
2022/09/30 12:14:46;;;;;;;2.97;1.92;;;14.80;99.90;;;;;;5003028;28;20026;-75
2022/09/30 12:17:35;;;;;;;3.92;2.10;;;14.80;99.90;;;;;;5005609;28;20029;-75
2022/09/30 12:20:30;;;;;;;4.35;2.78;;;14.70;99.90;;;;;;5002624;28;20529;-75
2022/09/30 12:23:25;;;;;;;3.65;2.50;;;14.70;99.90;;;;;;5003666;28;20391;-75
2022/09/30 12:25:52;;;;;;;5.00;3.50;;;14.70;99.90;;;;;;5004183;28;20147;-74
2022/09/30 12:31:55;;;;;;;6.13;3.80;;;14.70;99.90;;;;;;4997027;28;20030;-74
2022/09/30 12:34:47;;;;;;;5.70;4.47;;;14.70;99.90;;;;;;5004850;28;20116;-74
2022/09/30 12:37:33;;;;;;;5.78;4.35;;;14.70;99.90;;;;;;5001359;28;20397;-73
2022/09/30 12:40:19;;;;;;;6.05;3.70;;;14.60;99.90;;;;;;5001309;28;20037;-74
2022/09/30 12:43:15;;;;;;;5.65;4.35;;;14.60;99.90;;;;;;4996849;28;20029;-73
2022/09/30 12:46:00;;;;;;;679.65;441.58;;;14.70;99.90;;;;;;5002593;28;20040;-78
2022/09/30 12:48:48;;;;;;;208.23;120.40;;;14.60;99.90;;;;;;4983526;28;20034;-73
2022/09/30 12:51:34;;;;;;;197.32;119.60;;;14.50;99.90;;;;;;5002940;28;20026;-74
2022/09/30 12:54:03;;;;;;;19.63;11.80;;;14.50;99.90;;;;;;5001365;28;20025;-73
2022/09/30 12:56:32;;;;;;;7.85;5.35;;;14.50;99.90;;;;;;5005339;28;20041;-74
2022/09/30 12:58:59;;;;;;;5.90;4.57;;;14.50;99.90;;;;;;5004722;28;20033;-71
2022/09/30 13:01:29;;;;;;;7.40;4.18;;;14.50;99.90;;;;;;5004017;28;20095;-74
2022/09/30 13:03:58;;;;;;;3.53;3.00;;;14.50;99.90;;;;;;5003592;28;20109;-74
2022/09/30 13:06:46;;;;;;;5.38;3.33;;;14.60;99.90;;;;;;5005230;28;20025;-74
2022/09/30 13:09:17;;;;;;;5.82;3.75;;;14.60;99.90;;;;;;5000626;28;20045;-77
2022/09/30 13:11:44;;;;;;;6.05;4.20;;;14.70;99.90;;;;;;5022566;28;20029;-76
2022/09/30 13:14:33;;;;;;;5.63;4.13;;;14.70;99.90;;;;;;5007401;28;20022;-75
2022/09/30 13:17:05;;;;;;;5.57;3.78;;;14.70;99.90;;;;;;4987468;28;20030;-74
2022/09/30 13:19:41;;;;;;;6.38;4.95;;;14.70;99.90;;;;;;5007535;28;20501;-74
2022/09/30 13:22:19;;;;;;;6.65;3.80;;;14.70;99.90;;;;;;5005046;28;20041;-75